Map

Track Data

SID SEASON NUMBER BASIN SUBBASIN NAME ISO_TIME NATURE LAT LON WMO_WIND WMO_PRES WMO_AGENCY TRACK_TYPE DIST2LAND LANDFALL IFLAG USA_AGENCY USA_ATCF_ID USA_LAT USA_LON USA_RECORD USA_STATUS USA_WIND USA_PRES USA_SSHS USA_R34_NE USA_R34_SE USA_R34_SW USA_R34_NW USA_R50_NE USA_R50_SE USA_R50_SW USA_R50_NW USA_R64_NE USA_R64_SE USA_R64_SW USA_R64_NW USA_POCI USA_ROCI USA_RMW USA_EYE TOKYO_LAT TOKYO_LON TOKYO_GRADE TOKYO_WIND TOKYO_PRES TOKYO_R50_DIR TOKYO_R50_LONG TOKYO_R50_SHORT TOKYO_R30_DIR TOKYO_R30_LONG TOKYO_R30_SHORT TOKYO_LAND CMA_LAT CMA_LON CMA_CAT CMA_WIND CMA_PRES HKO_LAT HKO_LON HKO_CAT HKO_WIND HKO_PRES NEWDELHI_LAT NEWDELHI_LON NEWDELHI_GRADE NEWDELHI_WIND NEWDELHI_PRES NEWDELHI_CI NEWDELHI_DP NEWDELHI_POCI REUNION_LAT REUNION_LON REUNION_TYPE REUNION_WIND REUNION_PRES REUNION_TNUM REUNION_CI REUNION_RMW REUNION_R34_NE REUNION_R34_SE REUNION_R34_SW REUNION_R34_NW REUNION_R50_NE REUNION_R50_SE REUNION_R50_SW REUNION_R50_NW REUNION_R64_NE REUNION_R64_SE REUNION_R64_SW REUNION_R64_NW BOM_LAT BOM_LON BOM_TYPE BOM_WIND BOM_PRES BOM_TNUM BOM_CI BOM_RMW BOM_R34_NE BOM_R34_SE BOM_R34_SW BOM_R34_NW BOM_R50_NE BOM_R50_SE BOM_R50_SW BOM_R50_NW BOM_R64_NE BOM_R64_SE BOM_R64_SW BOM_R64_NW BOM_ROCI BOM_POCI BOM_EYE BOM_POS_METHOD BOM_PRES_METHOD NADI_LAT NADI_LON NADI_CAT NADI_WIND NADI_PRES WELLINGTON_LAT WELLINGTON_LON WELLINGTON_WIND WELLINGTON_PRES DS824_LAT DS824_LON DS824_STAGE DS824_WIND DS824_PRES TD9636_LAT TD9636_LON TD9636_STAGE TD9636_WIND TD9636_PRES TD9635_LAT TD9635_LON TD9635_WIND TD9635_PRES TD9635_ROCI NEUMANN_LAT NEUMANN_LON NEUMANN_CLASS NEUMANN_WIND NEUMANN_PRES MLC_LAT MLC_LON MLC_CLASS MLC_WIND MLC_PRES USA_GUST BOM_GUST BOM_GUST_PER REUNION_GUST REUNION_GUST_PER USA_SEAHGT USA_SEARAD_NE USA_SEARAD_SE USA_SEARAD_SW USA_SEARAD_NW STORM_SPEED STORM_DIR
1910219N20124 1910 29 WP MM NOT_NAMED 1910-08-06 16:00:00 NR 19.6000 124.200 main 240 237 __________O___ -1 19.6000 124.200 4 19 318
1910219N20124 1910 29 WP MM NOT_NAMED 1910-08-06 18:00:00 NR 20.0606 123.758 main 246 240 __________P___ -1 20.0606 123.758 4 18 319
1910219N20124 1910 29 WP MM NOT_NAMED 1910-08-06 21:00:00 NR 20.7651 123.140 main 258 181 __________P___ -1 20.7651 123.140 4 18 324
1910219N20124 1910 29 WP MM NOT_NAMED 1910-08-07 00:00:00 NR 21.5074 122.642 main 181 128 __________P___ -1 21.5074 122.642 4 17 334
1910219N20124 1910 29 WP MM NOT_NAMED 1910-08-07 03:00:00 NR 22.3130 122.342 main 128 107 __________P___ -1 22.3130 122.342 4 17 344
1910219N20124 1910 29 WP MM NOT_NAMED 1910-08-07 04:00:00 NR 22.6000 122.300 main 107 91 __________O___ -1 22.6000 122.300 4 18 0
1910219N20124 1910 29 WP MM NOT_NAMED 1910-08-07 06:00:00 NR 23.2021 122.314 main 91 75 __________P___ -1 23.2021 122.314 4 19 9
1910219N20124 1910 29 WP MM NOT_NAMED 1910-08-07 09:00:00 NR 24.1330 122.562 main 83 74 __________P___ -1 24.1330 122.562 4 20 20
1910219N20124 1910 29 WP MM NOT_NAMED 1910-08-07 12:00:00 NR 25.0229 123.050 main 100 111 __________P___ -1 25.0229 123.050 4 20 33
1910219N20124 1910 29 WP MM NOT_NAMED 1910-08-07 15:00:00 NR 25.7875 123.735 main 192 201 __________P___ -1 25.7875 123.735 4 20 41
1910219N20124 1910 29 WP MM NOT_NAMED 1910-08-07 16:00:00 NR 26.0000 124.000 main 229 229 __________O___ -1 26.0000 124.000 4 19 55
1910219N20124 1910 29 WP MM NOT_NAMED 1910-08-07 18:00:00 NR 26.3374 124.606 main 298 312 __________P___ -1 26.3374 124.606 4 20 65
1910219N20124 1910 29 WP MM NOT_NAMED 1910-08-07 21:00:00 NR 26.6968 125.662 main 415 415 __________P___ -1 26.6968 125.662 4 20 73
1910219N20124 1910 29 WP MM NOT_NAMED 1910-08-08 00:00:00 NR 26.9216 126.755 main 524 517 __________P___ -1 26.9216 126.755 4 19 79
1910219N20124 1910 29 WP MM NOT_NAMED 1910-08-08 03:00:00 NR 27.0624 127.729 main 517 504 __________P___ -1 27.0624 127.729 4 17 81
1910219N20124 1910 29 WP MM NOT_NAMED 1910-08-08 04:00:00 NR 27.1000 128.000 main 504 479 __________O___ -1 27.1000 128.000 4 12 77
1910219N20124 1910 29 WP MM NOT_NAMED 1910-08-08 06:00:00 NR 27.1980 128.378 main 479 452 __________P___ -1 27.1980 128.378 4 9 73
1910219N20124 1910 29 WP MM NOT_NAMED 1910-08-08 09:00:00 NR 27.3039 128.773 main 452 434 __________P___ -1 27.3039 128.773 4 6 72
1910219N20124 1910 29 WP MM NOT_NAMED 1910-08-08 12:00:00 NR 27.3850 129.032 main 434 416 __________P___ -1 27.3850 129.032 4 4 68
1910219N20124 1910 29 WP MM NOT_NAMED 1910-08-08 15:00:00 NR 27.4676 129.232 main 416 413 __________P___ -1 27.4676 129.232 4 4 64
1910219N20124 1910 29 WP MM NOT_NAMED 1910-08-08 16:00:00 NR 27.5000 129.300 main 413 396 __________O___ -1 27.5000 129.300 4 4 61
1910219N20124 1910 29 WP MM NOT_NAMED 1910-08-08 18:00:00 NR 27.5760 129.450 main 396 380 __________P___ -1 27.5760 129.450 4 5 59
1910219N20124 1910 29 WP MM NOT_NAMED 1910-08-08 21:00:00 NR 27.7140 129.708 main 380 352 __________P___ -1 27.7140 129.708 4 6 58
1910219N20124 1910 29 WP MM NOT_NAMED 1910-08-09 00:00:00 NR 27.8725 129.994 main 352 337 __________P___ -1 27.8725 129.994 4 6 58
1910219N20124 1910 29 WP MM NOT_NAMED 1910-08-09 03:00:00 NR 28.0424 130.297 main 337 324 __________P___ -1 28.0424 130.297 4 6 58
1910219N20124 1910 29 WP MM NOT_NAMED 1910-08-09 04:00:00 NR 28.1000 130.400 main 324 __________O___ -1 28.1000 130.400 4 6 57

Digital Typhoon Data and Search

About IBTrACS Database

This database is a web-friendly format of International Best Track Archive for Climate Stewardship (IBTrACS), a global best track data archive curated by NOAA dating back to 1842.

Updated: 2021-11-26